createdAt,value
2023-03-05T00:01:26.467Z,9.35
2023-03-05T00:03:55.843Z,12.98
2023-03-05T00:06:25.341Z,9.82
2023-03-05T00:08:53.706Z,9.93
2023-03-05T00:11:21.580Z,9.75
2023-03-05T00:13:52.403Z,9.93
2023-03-05T00:16:20.964Z,9.88
2023-03-05T00:18:49.387Z,8.93
2023-03-05T00:21:31.078Z,15.60
2023-03-05T00:24:01.647Z,11.50
2023-03-05T00:26:31.016Z,11.30
2023-03-05T00:28:59.041Z,11.00
2023-03-05T00:31:32.375Z,9.50
2023-03-05T00:34:02.643Z,8.82
2023-03-05T00:36:30.271Z,9.02
2023-03-05T00:38:58.269Z,9.82
2023-03-05T00:41:26.113Z,13.38
2023-03-05T00:43:54.144Z,9.90
2023-03-05T00:46:23.104Z,11.55
2023-03-05T00:48:50.653Z,10.40
2023-03-05T00:51:19.180Z,9.98
2023-03-05T00:53:46.891Z,10.23
2023-03-05T00:56:14.391Z,7.72
2023-03-05T00:58:41.834Z,10.85
2023-03-05T01:03:37.124Z,10.73
2023-03-05T01:06:11.082Z,11.75
2023-03-05T01:08:39.130Z,12.50
2023-03-05T01:11:07.683Z,15.82
2023-03-05T01:13:35.709Z,13.50
2023-03-05T01:16:04.456Z,15.52
2023-03-05T01:18:32.149Z,15.15
2023-03-05T01:20:59.821Z,12.68
2023-03-05T01:23:27.448Z,16.55
2023-03-05T01:28:23.775Z,14.13
2023-03-05T01:30:51.560Z,10.88
2023-03-05T01:33:19.246Z,11.43
2023-03-05T01:35:48.322Z,11.07
2023-03-05T01:38:16.558Z,11.48
2023-03-05T01:40:44.350Z,9.23
2023-03-05T01:43:12.103Z,11.90
2023-03-05T01:46:00.585Z,10.48
2023-03-05T01:48:28.345Z,9.30
2023-03-05T01:50:55.776Z,10.90
2023-03-05T01:55:50.926Z,9.77
2023-03-05T01:58:18.935Z,8.68
2023-03-05T02:00:48.561Z,10.13
2023-03-05T02:03:16.745Z,12.15
2023-03-05T02:05:44.633Z,11.20
2023-03-05T02:08:18.669Z,10.65
2023-03-05T02:10:52.819Z,10.18
2023-03-05T02:13:23.903Z,10.05
2023-03-05T02:15:54.127Z,12.50
2023-03-05T02:18:23.448Z,12.82
2023-03-05T02:20:52.513Z,8.77
2023-03-05T02:23:21.343Z,10.23
2023-03-05T02:25:49.335Z,10.18
2023-03-05T02:28:38.336Z,9.30
2023-03-05T02:31:25.804Z,10.18
2023-03-05T02:33:56.106Z,8.23
2023-03-05T02:36:26.090Z,9.02
2023-03-05T02:38:57.157Z,10.82
2023-03-05T02:41:25.499Z,13.07
2023-03-05T02:43:54.103Z,9.82
2023-03-05T02:48:50.046Z,8.77
2023-03-05T02:51:18.254Z,9.63
2023-03-05T02:53:46.883Z,9.43
2023-03-05T02:56:15.007Z,9.77
2023-03-05T02:58:43.014Z,11.02
2023-03-05T03:01:10.771Z,14.82
2023-03-05T03:03:38.497Z,12.13
2023-03-05T03:06:10.122Z,11.75
2023-03-05T03:08:37.650Z,11.05
2023-03-05T03:13:35.977Z,12.27
2023-03-05T03:18:35.326Z,12.77
2023-03-05T03:21:03.373Z,13.50
2023-03-05T03:23:31.820Z,13.30
2023-03-05T03:25:59.459Z,15.60
2023-03-05T03:28:27.037Z,11.38
2023-03-05T03:33:23.066Z,13.00
2023-03-05T03:38:17.911Z,11.98
2023-03-05T03:45:44.560Z,13.20
2023-03-05T03:48:12.095Z,11.70
2023-03-05T03:53:09.410Z,11.90
2023-03-05T03:55:36.785Z,12.05
2023-03-05T04:00:31.850Z,12.45
2023-03-05T04:02:59.538Z,13.60
2023-03-05T04:07:54.895Z,14.63
2023-03-05T04:10:22.370Z,15.77
2023-03-05T04:12:49.876Z,15.10
2023-03-05T04:15:17.519Z,14.18
2023-03-05T04:17:45.130Z,16.05
2023-03-05T04:20:12.819Z,14.40
2023-03-05T04:22:40.365Z,11.80
2023-03-05T04:27:37.670Z,12.60
2023-03-05T04:30:05.764Z,15.40
2023-03-05T04:32:33.318Z,15.85
2023-03-05T04:35:00.901Z,15.60
2023-03-05T04:37:28.987Z,16.67
2023-03-05T04:39:56.780Z,14.43
2023-03-05T04:42:24.880Z,16.67
2023-03-05T04:44:52.432Z,13.90
2023-03-05T04:47:20.001Z,14.50
2023-03-05T04:54:44.177Z,16.42
2023-03-05T04:57:11.876Z,16.55
2023-03-05T04:59:39.325Z,16.40
2023-03-05T05:02:06.940Z,15.25
2023-03-05T05:04:36.159Z,15.23
2023-03-05T05:07:04.892Z,15.65
2023-03-05T05:09:32.308Z,15.88
2023-03-05T05:16:54.204Z,15.50
2023-03-05T05:21:49.028Z,16.60
2023-03-05T05:24:16.460Z,19.05
2023-03-05T05:26:44.197Z,18.83
2023-03-05T05:29:11.644Z,19.48
2023-03-05T05:34:06.565Z,16.23
2023-03-05T05:41:28.631Z,15.57
2023-03-05T05:46:24.785Z,15.27
2023-03-05T05:48:52.269Z,15.02
2023-03-05T05:53:48.615Z,16.98
2023-03-05T05:56:17.680Z,18.02
2023-03-05T05:58:47.520Z,14.57
2023-03-05T06:01:21.101Z,18.13
2023-03-05T06:03:48.955Z,14.18
2023-03-05T06:06:19.159Z,15.80
2023-03-05T06:08:46.922Z,15.63
2023-03-05T06:11:16.323Z,15.07
2023-03-05T06:13:45.390Z,15.35
2023-03-05T06:16:15.962Z,15.95
2023-03-05T06:18:43.604Z,13.27
2023-03-05T06:23:39.661Z,13.85
2023-03-05T06:26:08.466Z,16.42
2023-03-05T06:28:36.117Z,12.35
2023-03-05T06:31:08.109Z,13.88
2023-03-05T06:33:36.769Z,13.02
2023-03-05T06:36:09.305Z,12.13
2023-03-05T06:38:38.056Z,13.27
2023-03-05T06:41:11.689Z,12.27
2023-03-05T06:43:41.927Z,12.93
2023-03-05T06:46:14.892Z,12.20
2023-03-05T06:48:43.393Z,12.13
2023-03-05T06:51:16.581Z,14.02
2023-03-05T06:53:47.738Z,13.63
2023-03-05T06:56:18.040Z,11.80
2023-03-05T06:58:47.911Z,12.32
2023-03-05T07:01:16.221Z,11.65
2023-03-05T07:03:44.204Z,12.07
2023-03-05T07:06:14.218Z,11.77
2023-03-05T07:08:41.814Z,13.93
2023-03-05T07:11:19.008Z,10.60
2023-03-05T07:16:20.426Z,12.32
2023-03-05T07:18:48.977Z,11.85
2023-03-05T07:21:22.907Z,13.18
2023-03-05T07:23:53.005Z,11.20
2023-03-05T07:26:21.093Z,13.00
2023-03-05T07:28:49.075Z,12.90
2023-03-05T07:31:19.369Z,11.18
2023-03-05T07:33:51.153Z,13.20
2023-03-05T07:36:20.155Z,13.05
2023-03-05T07:38:47.732Z,13.82
2023-03-05T07:41:22.053Z,12.93
2023-03-05T07:43:52.590Z,10.38
2023-03-05T07:46:23.438Z,12.77
2023-03-05T07:48:51.253Z,12.50
2023-03-05T07:51:20.271Z,12.75
2023-03-05T07:53:49.716Z,12.15
2023-03-05T07:56:26.009Z,9.98
2023-03-05T07:58:53.541Z,11.57
2023-03-05T08:03:48.522Z,13.35
2023-03-05T08:06:16.353Z,13.65
2023-03-05T08:08:43.916Z,13.75
2023-03-05T08:13:40.643Z,11.70
2023-03-05T08:16:14.211Z,10.93
2023-03-05T08:18:42.832Z,11.65
2023-03-05T08:21:30.971Z,13.02
2023-03-05T08:23:59.034Z,10.75
2023-03-05T08:26:29.265Z,11.05
2023-03-05T08:28:57.362Z,11.02
2023-03-05T08:31:26.979Z,8.75
2023-03-05T08:33:57.290Z,12.82
2023-03-05T08:36:24.886Z,18.85
2023-03-05T08:38:53.186Z,14.15
2023-03-05T08:41:20.608Z,10.57
2023-03-05T08:46:16.904Z,9.63
2023-03-05T08:48:44.831Z,14.65
2023-03-05T08:51:15.153Z,10.85
2023-03-05T08:53:44.218Z,12.40
2023-03-05T08:56:12.419Z,11.40
2023-03-05T08:58:40.058Z,12.00
2023-03-05T09:01:07.526Z,12.73
2023-03-05T09:03:35.141Z,11.15
2023-03-05T09:06:06.049Z,9.60
2023-03-05T09:08:33.769Z,11.27
2023-03-05T09:11:06.792Z,10.80
2023-03-05T09:13:34.928Z,12.68
2023-03-05T09:16:11.700Z,12.10
2023-03-05T09:18:40.340Z,11.27
2023-03-05T09:21:09.859Z,11.70
2023-03-05T09:23:37.956Z,11.98
2023-03-05T09:26:07.333Z,11.57
2023-03-05T09:28:35.391Z,11.60
2023-03-05T09:31:04.544Z,10.20
2023-03-05T09:33:36.777Z,10.82
2023-03-05T09:36:05.750Z,11.32
2023-03-05T09:38:33.213Z,13.13
2023-03-05T09:43:52.578Z,13.15
2023-03-05T09:46:48.298Z,10.52
2023-03-05T09:49:58.783Z,12.45
2023-03-05T09:52:50.501Z,12.40
2023-03-05T09:55:29.576Z,13.18
2023-03-05T09:58:03.453Z,10.25
2023-03-05T10:00:39.106Z,12.00
2023-03-05T10:03:25.851Z,12.13
2023-03-05T10:06:14.903Z,13.23
2023-03-05T10:08:52.015Z,13.00
2023-03-05T10:11:37.141Z,10.13
2023-03-05T10:14:05.108Z,12.93
2023-03-05T10:16:57.033Z,10.50
2023-03-05T10:19:24.545Z,12.60
2023-03-05T10:24:51.141Z,10.75
2023-03-05T10:27:45.469Z,13.32
2023-03-05T10:30:32.169Z,12.20
2023-03-05T10:33:20.230Z,12.73
2023-03-05T10:36:06.332Z,9.15
2023-03-05T10:39:00.070Z,13.85
2023-03-05T10:41:45.316Z,12.77
2023-03-05T10:44:30.772Z,9.75
2023-03-05T10:47:00.055Z,10.10
2023-03-05T10:49:32.414Z,13.50
2023-03-05T10:52:05.784Z,10.65
2023-03-05T10:54:35.948Z,9.35
2023-03-05T10:57:12.783Z,12.15
2023-03-05T10:59:50.030Z,11.70
2023-03-05T11:04:47.284Z,9.20
2023-03-05T11:07:14.851Z,8.45
2023-03-05T11:10:03.863Z,12.38
2023-03-05T11:12:35.835Z,9.55
2023-03-05T11:15:15.064Z,10.38
2023-03-05T11:17:44.857Z,12.30
2023-03-05T11:20:27.851Z,11.70
2023-03-05T11:23:15.650Z,11.48
2023-03-05T11:25:58.462Z,10.95
2023-03-05T11:28:33.560Z,9.50
2023-03-05T11:31:08.280Z,9.68
2023-03-05T11:33:38.155Z,10.80
2023-03-05T11:36:34.738Z,12.25
2023-03-05T11:39:10.324Z,11.75
2023-03-05T11:41:49.026Z,10.60
2023-03-05T11:44:34.511Z,9.73
2023-03-05T11:47:24.980Z,11.55
2023-03-05T11:50:03.346Z,11.45
2023-03-05T11:52:42.511Z,11.15
2023-03-05T11:55:15.743Z,11.45
2023-03-05T11:57:50.917Z,9.25
2023-03-05T12:00:24.769Z,11.38
2023-03-05T12:02:56.816Z,10.95
2023-03-05T12:05:24.574Z,12.02
2023-03-05T12:07:55.723Z,10.75
2023-03-05T12:10:25.055Z,11.00
2023-03-05T12:13:00.251Z,10.48
2023-03-05T12:15:47.610Z,14.45
2023-03-05T12:18:45.910Z,11.45
2023-03-05T12:21:28.317Z,10.00
2023-03-05T12:24:04.989Z,11.93
2023-03-05T12:26:58.362Z,9.43
2023-03-05T12:29:42.751Z,8.38
2023-03-05T12:32:22.388Z,12.65
2023-03-05T12:34:58.844Z,10.45
2023-03-05T12:37:26.437Z,9.35
2023-03-05T12:42:28.590Z,10.98
2023-03-05T12:47:48.239Z,7.00
2023-03-05T12:50:27.750Z,9.20
2023-03-05T12:53:07.299Z,11.70
2023-03-05T12:56:12.703Z,8.70
2023-03-05T12:58:48.560Z,10.63
2023-03-05T13:01:38.508Z,9.90
2023-03-05T13:04:15.297Z,14.55
2023-03-05T13:06:43.105Z,7.28
2023-03-05T13:09:17.228Z,8.23
2023-03-05T13:11:48.807Z,6.78
2023-03-05T13:14:37.127Z,10.35
2023-03-05T13:17:27.378Z,9.73
2023-03-05T13:19:55.842Z,8.93
2023-03-05T13:22:24.762Z,8.73
2023-03-05T13:25:15.442Z,8.60
2023-03-05T13:27:43.686Z,10.27
2023-03-05T13:30:23.553Z,7.47
2023-03-05T13:32:55.037Z,9.30
2023-03-05T13:35:23.250Z,6.03
2023-03-05T13:37:51.079Z,8.27
2023-03-05T13:40:20.706Z,8.95
2023-03-05T13:42:48.138Z,10.45
2023-03-05T13:47:58.972Z,11.38
2023-03-05T13:50:36.803Z,8.93
2023-03-05T13:53:26.430Z,8.98
2023-03-05T13:55:58.029Z,8.50
2023-03-05T13:58:52.593Z,10.23
2023-03-05T14:01:31.228Z,9.75
2023-03-05T14:04:08.320Z,6.78
2023-03-05T14:06:42.476Z,11.23
2023-03-05T14:09:23.771Z,11.23
2023-03-05T14:12:01.971Z,8.90
2023-03-05T14:14:34.609Z,9.98
2023-03-05T14:17:32.449Z,8.43
2023-03-05T14:20:14.650Z,7.50
2023-03-05T14:22:45.470Z,9.43
2023-03-05T14:25:45.664Z,10.60
2023-03-05T14:28:19.122Z,9.93
2023-03-05T14:30:48.306Z,9.25
2023-03-05T14:33:26.127Z,9.05
2023-03-05T14:35:54.474Z,11.00
2023-03-05T14:38:25.378Z,9.65
2023-03-05T14:40:52.905Z,8.23
2023-03-05T14:45:48.123Z,10.80
2023-03-05T14:48:20.361Z,8.63
2023-03-05T14:50:58.373Z,9.85
2023-03-05T14:53:29.636Z,9.10
2023-03-05T14:55:57.412Z,8.02
2023-03-05T14:58:28.064Z,9.32
2023-03-05T15:00:56.986Z,10.98
2023-03-05T15:03:25.150Z,12.13
2023-03-05T15:05:55.407Z,12.23
2023-03-05T15:08:29.406Z,9.73
2023-03-05T15:10:57.620Z,11.60
2023-03-05T15:13:25.684Z,11.07
2023-03-05T15:15:55.170Z,9.20
2023-03-05T15:18:23.823Z,12.32
2023-03-05T15:20:54.937Z,9.73
2023-03-05T15:23:22.333Z,11.25
2023-03-05T15:28:17.717Z,10.15
2023-03-05T15:30:47.510Z,9.40
2023-03-05T15:33:16.751Z,8.93
2023-03-05T15:35:45.008Z,8.13
2023-03-05T15:38:12.580Z,12.23
2023-03-05T15:40:40.029Z,9.02
2023-03-05T15:43:07.617Z,11.90
2023-03-05T15:48:02.383Z,11.40
2023-03-05T15:50:29.885Z,12.02
2023-03-05T15:52:58.115Z,10.50
2023-03-05T15:55:25.745Z,11.05
2023-03-05T15:57:54.132Z,11.77
2023-03-05T16:00:29.506Z,12.63
2023-03-05T16:02:56.993Z,9.23
2023-03-05T16:07:53.696Z,12.23
2023-03-05T16:10:25.327Z,8.75
2023-03-05T16:13:04.139Z,15.20
2023-03-05T16:15:33.170Z,9.00
2023-03-05T16:18:04.527Z,12.65
2023-03-05T16:20:32.349Z,13.13
2023-03-05T16:22:59.983Z,10.27
2023-03-05T16:25:27.439Z,11.13
2023-03-05T16:32:50.481Z,9.93
2023-03-05T16:35:18.933Z,12.73
2023-03-05T16:37:46.375Z,11.60
2023-03-05T16:42:42.248Z,11.68
2023-03-05T16:45:11.430Z,10.48
2023-03-05T16:47:39.643Z,10.35
2023-03-05T16:50:09.045Z,11.43
2023-03-05T16:52:36.663Z,10.75
2023-03-05T16:55:05.833Z,9.55
2023-03-05T16:57:33.370Z,11.32
2023-03-05T17:00:02.594Z,10.70
2023-03-05T17:02:30.263Z,9.82
2023-03-05T17:04:58.180Z,10.02
2023-03-05T17:07:26.620Z,10.60
2023-03-05T17:09:54.655Z,11.85
2023-03-05T17:12:23.160Z,9.15
2023-03-05T17:14:50.600Z,9.90
2023-03-05T17:19:45.262Z,10.18
2023-03-05T17:22:12.984Z,11.10
2023-03-05T17:24:42.966Z,9.55
2023-03-05T17:27:10.792Z,15.27
2023-03-05T17:29:38.316Z,10.25
2023-03-05T17:34:36.733Z,10.02
2023-03-05T17:37:05.464Z,10.57
2023-03-05T17:39:33.118Z,11.57
2023-03-05T17:42:01.107Z,12.73
2023-03-05T17:44:28.578Z,10.25
2023-03-05T17:46:56.216Z,14.88
2023-03-05T17:49:23.676Z,11.18
2023-03-05T17:54:18.740Z,10.43
2023-03-05T17:56:48.111Z,10.55
2023-03-05T17:59:16.504Z,11.13
2023-03-05T18:01:44.064Z,11.30
2023-03-05T18:06:39.108Z,10.10
2023-03-05T18:09:06.882Z,14.50
2023-03-05T18:11:34.538Z,11.10
2023-03-05T18:14:02.545Z,14.57
2023-03-05T18:16:30.481Z,11.82
2023-03-05T18:18:57.935Z,13.23
2023-03-05T18:21:28.080Z,11.50
2023-03-05T18:23:55.690Z,12.68
2023-03-05T18:26:23.098Z,9.55
2023-03-05T18:28:50.459Z,11.57
2023-03-05T18:31:18.335Z,12.35
2023-03-05T18:33:45.797Z,12.32
2023-03-05T18:36:15.073Z,15.02
2023-03-05T18:38:43.065Z,10.82
2023-03-05T18:41:22.877Z,9.35
2023-03-05T18:43:50.849Z,12.57
2023-03-05T18:46:18.457Z,11.43
2023-03-05T18:48:48.107Z,11.35
2023-03-05T18:51:20.294Z,10.15
2023-03-05T18:53:48.328Z,12.63
2023-03-05T18:56:15.759Z,11.55
2023-03-05T19:03:37.835Z,11.32
2023-03-05T19:08:35.782Z,11.95
2023-03-05T19:11:03.849Z,11.35
2023-03-05T19:13:43.836Z,10.98
2023-03-05T19:16:29.399Z,12.65
2023-03-05T19:19:20.311Z,15.05
2023-03-05T19:21:50.027Z,14.55
2023-03-05T19:24:17.806Z,12.23
2023-03-05T19:26:46.319Z,10.95
2023-03-05T19:29:14.945Z,12.75
2023-03-05T19:31:42.664Z,12.85
2023-03-05T19:34:10.351Z,11.27
2023-03-05T19:36:37.919Z,13.88
2023-03-05T19:41:35.188Z,11.98
2023-03-05T19:44:04.383Z,10.55
2023-03-05T19:46:32.300Z,11.18
2023-03-05T19:48:59.837Z,8.57
2023-03-05T19:51:27.551Z,10.68
2023-03-05T19:53:54.984Z,11.20
2023-03-05T19:58:49.813Z,12.50
2023-03-05T20:01:20.699Z,14.18
2023-03-05T20:03:50.734Z,14.15
2023-03-05T20:06:18.445Z,13.82
2023-03-05T20:08:46.767Z,12.18
2023-03-05T20:11:16.267Z,11.23
2023-03-05T20:13:44.364Z,14.20
2023-03-05T20:16:19.172Z,13.20
2023-03-05T20:18:47.313Z,14.95
2023-03-05T20:21:21.269Z,15.35
2023-03-05T20:23:50.509Z,14.00
2023-03-05T20:26:18.619Z,15.35
2023-03-05T20:28:46.456Z,17.80
2023-03-05T20:31:14.038Z,12.57
2023-03-05T20:33:41.540Z,14.57
2023-03-05T20:38:36.793Z,14.27
2023-03-05T20:41:09.236Z,17.40
2023-03-05T20:43:40.891Z,14.52
2023-03-05T20:46:30.230Z,15.90
2023-03-05T20:49:00.622Z,14.15
2023-03-05T20:51:30.888Z,17.42
2023-03-05T20:54:02.645Z,15.77
2023-03-05T20:56:32.581Z,19.13
2023-03-05T20:59:03.910Z,20.00
2023-03-05T21:01:33.749Z,20.65
2023-03-05T21:04:01.591Z,22.30
2023-03-05T21:06:31.006Z,19.85
2023-03-05T21:08:58.811Z,21.67
2023-03-05T21:11:26.863Z,20.50
2023-03-05T21:13:54.373Z,22.02
2023-03-05T21:16:25.408Z,24.77
2023-03-05T21:18:54.349Z,21.73
2023-03-05T21:21:21.778Z,23.95
2023-03-05T21:26:16.818Z,26.27
2023-03-05T21:28:44.496Z,27.75
2023-03-05T21:33:43.067Z,24.70
2023-03-05T21:38:37.929Z,25.38
2023-03-05T21:41:05.586Z,23.67
2023-03-05T21:43:33.380Z,24.83
2023-03-05T21:46:03.252Z,24.50
2023-03-05T21:48:31.656Z,24.13
2023-03-05T21:50:59.458Z,25.08
2023-03-05T21:53:27.083Z,23.52
2023-03-05T21:56:07.908Z,23.27
2023-03-05T21:58:35.542Z,26.73
2023-03-05T22:01:03.379Z,25.40
2023-03-05T22:03:31.037Z,24.63
2023-03-05T22:05:58.704Z,25.15
2023-03-05T22:08:26.296Z,26.83
2023-03-05T22:10:54.469Z,26.58
2023-03-05T22:13:21.999Z,25.38
2023-03-05T22:18:23.906Z,28.67
2023-03-05T22:20:52.106Z,24.92
2023-03-05T22:23:22.489Z,23.73
2023-03-05T22:26:01.881Z,26.85
2023-03-05T22:28:30.456Z,27.27
2023-03-05T22:30:58.571Z,23.83
2023-03-05T22:33:27.529Z,26.15
2023-03-05T22:35:55.077Z,21.27
2023-03-05T22:38:23.072Z,23.35
2023-03-05T22:40:51.209Z,23.50
2023-03-05T22:43:19.738Z,26.40
2023-03-05T22:45:47.429Z,26.42
2023-03-05T22:48:15.245Z,25.48
2023-03-05T22:50:44.342Z,23.10
2023-03-05T22:53:12.635Z,22.98
2023-03-05T22:55:41.383Z,23.75
2023-03-05T22:58:09.258Z,23.40
2023-03-05T23:00:37.386Z,22.30
2023-03-05T23:03:06.562Z,23.10
2023-03-05T23:05:35.153Z,22.50
2023-03-05T23:08:02.801Z,23.10
2023-03-05T23:10:30.323Z,23.98
2023-03-05T23:12:59.910Z,26.10
2023-03-05T23:15:34.339Z,28.42
2023-03-05T23:18:02.931Z,25.58
2023-03-05T23:20:36.144Z,22.67
2023-03-05T23:23:04.310Z,27.02
2023-03-05T23:25:34.129Z,26.88
2023-03-05T23:28:02.956Z,23.80
2023-03-05T23:30:37.353Z,21.13
2023-03-05T23:33:04.947Z,23.23
2023-03-05T23:35:43.031Z,22.85
2023-03-05T23:38:14.311Z,22.00
2023-03-05T23:40:54.028Z,25.42
2023-03-05T23:43:24.665Z,22.88
2023-03-05T23:45:55.118Z,21.73
2023-03-05T23:48:24.787Z,23.10
2023-03-05T23:50:52.747Z,23.45
2023-03-05T23:53:29.691Z,24.27
2023-03-05T23:55:57.483Z,21.80
2023-03-05T23:58:25.069Z,22.70
